Kona International At Keahole Airport Kailua/Kona US
ICAO: PHKO
IATA: KOA
Category: Medium
Scheduled Services:

Elevation: 47 ft
TransAlt. 18000 ft.

Airport Communications:
ATIS:127.4
CLNC DEL:121.9
HONOLULU CNTR:126
CTAF:120.3
HONOLULU:123.6
TWR:120.3

PHKO Zoom In..

Runways:

(A) RW 17 length 11000 ft width 150 ft
ILS 109.70 / hdg 174

(B) RW 35 length 11000 ft width 150 ft
---- / hdg 354

Location; PHKO
Day. 26 / Time. 12.53 Zulu
* Altimeter: 30.01
* Temperature: 25° c. 77°f.
* Wind from: 140° Speed 06 kn.
Dewpoint: 19° c.
Visibility: 9 Statute Miles.
Clouds: Overcast 7500 ft.
Conditions: Haze.

PHKO 261253Z AUTO 14006KT 9SM HZ OVC075 25/19 A3001 RMK AO2 SLP162 T02500189 TSNO


Wind From 140°
Speed 06 kn.

 
 
jpsmedia.com for Web Design SOUNDCLOUD worldairports.se 2018   terms of use